createdAt,value
2023-04-04T00:00:14.781Z,99080.63
2023-04-04T00:05:17.372Z,99076.34
2023-04-04T00:10:19.688Z,99083.78
2023-04-04T00:15:22.744Z,99066.34
2023-04-04T00:20:25.271Z,99059.34
2023-04-04T00:25:27.457Z,99039.94
2023-04-04T00:30:30.499Z,99048.69
2023-04-04T00:35:33.279Z,99042.78
2023-04-04T00:40:48.200Z,99024.06
2023-04-04T00:45:52.596Z,99012.72
2023-04-04T00:50:54.806Z,99003.53
2023-04-04T00:55:56.934Z,99014.81
2023-04-04T01:01:00.936Z,98972.63
2023-04-04T01:06:03.570Z,98999.06
2023-04-04T01:11:06.770Z,99004.59
2023-04-04T01:16:09.461Z,98969.59
2023-04-04T01:21:13.720Z,99000.44
2023-04-04T01:26:15.953Z,99002.06
2023-04-04T01:31:23.317Z,98994.09
2023-04-04T01:36:43.447Z,99010.38
2023-04-04T01:41:48.990Z,98994.22
2023-04-04T01:46:57.528Z,98983.28
2023-04-04T01:52:00.013Z,98992.41
2023-04-04T01:57:02.256Z,98976.88
2023-04-04T02:02:04.428Z,98998.16
2023-04-04T02:07:07.212Z,98964.19
2023-04-04T02:12:09.421Z,98981.72
2023-04-04T02:17:11.876Z,98987.53
2023-04-04T02:22:14.012Z,98993.34
2023-04-04T02:27:16.103Z,98987.94
2023-04-04T02:32:18.716Z,98999.47
2023-04-04T02:37:20.890Z,99005.19
2023-04-04T02:42:22.973Z,99016.44
2023-04-04T02:47:25.541Z,99007.41
2023-04-04T02:52:27.679Z,99024.69
2023-04-04T02:57:29.810Z,98996.91
2023-04-04T03:02:32.344Z,99020.19
2023-04-04T03:07:34.951Z,99013.41
2023-04-04T03:12:37.048Z,99004.13
2023-04-04T03:17:40.861Z,99001.25
2023-04-04T03:22:43.516Z,98996.47
2023-04-04T03:27:45.701Z,98985.44
2023-04-04T03:32:47.989Z,98991.91
2023-04-04T03:37:50.155Z,99024.03
2023-04-04T03:42:52.559Z,99020.81
2023-04-04T03:47:54.738Z,99032.19
2023-04-04T03:52:58.667Z,99026.44
2023-04-04T03:58:01.036Z,99026.16
2023-04-04T04:03:03.548Z,98998.44
2023-04-04T04:08:06.421Z,99010.66
2023-04-04T04:13:08.910Z,99008.69
2023-04-04T04:18:11.292Z,99009.00
2023-04-04T04:23:13.468Z,99020.06
2023-04-04T04:28:15.971Z,99036.44
2023-04-04T04:33:18.697Z,99088.56
2023-04-04T04:38:20.940Z,99100.06
2023-04-04T04:43:23.475Z,99097.22
2023-04-04T04:48:25.627Z,99100.38
2023-04-04T04:53:28.060Z,99101.13
2023-04-04T04:58:30.221Z,99113.19
2023-04-04T05:03:32.433Z,99105.84
2023-04-04T05:08:34.576Z,99117.22
2023-04-04T05:13:37.298Z,99121.38
2023-04-04T05:18:39.509Z,99085.88
2023-04-04T05:23:42.119Z,99094.63
2023-04-04T05:28:44.289Z,99083.56
2023-04-04T05:33:46.409Z,99092.91
2023-04-04T05:38:48.674Z,99112.31
2023-04-04T05:43:51.217Z,99080.16
2023-04-04T05:48:53.457Z,99117.50
2023-04-04T05:53:55.635Z,99122.94
2023-04-04T05:58:58.042Z,99126.81
2023-04-04T06:04:01.096Z,99130.81
2023-04-04T06:09:03.885Z,99134.63
2023-04-04T06:14:06.416Z,99129.44
2023-04-04T06:19:08.678Z,99139.91
2023-04-04T06:24:11.238Z,99150.56
2023-04-04T06:29:13.812Z,99142.53
2023-04-04T06:34:16.622Z,99150.00
2023-04-04T06:39:20.936Z,99157.22
2023-04-04T06:44:23.226Z,99151.75
2023-04-04T06:49:25.629Z,99170.47
2023-04-04T06:54:28.167Z,99151.13
2023-04-04T06:59:30.484Z,99157.72
2023-04-04T07:04:35.219Z,99169.06
2023-04-04T07:09:37.556Z,99171.75
2023-04-04T07:14:39.846Z,99188.81
2023-04-04T07:19:41.977Z,99192.59
2023-04-04T07:24:44.312Z,99176.06
2023-04-04T07:29:46.499Z,99180.66
2023-04-04T07:34:49.886Z,99210.69
2023-04-04T07:39:52.331Z,99209.19
2023-04-04T07:44:54.505Z,99216.00
2023-04-04T07:49:56.830Z,99197.97
2023-04-04T07:55:00.748Z,99199.72
2023-04-04T08:00:04.634Z,99218.22
2023-04-04T08:05:07.538Z,99229.50
2023-04-04T08:10:10.290Z,99234.19
2023-04-04T08:15:13.031Z,99249.19
2023-04-04T08:20:16.103Z,99223.16
2023-04-04T08:25:19.042Z,99252.63
2023-04-04T08:30:21.276Z,99236.88
2023-04-04T08:35:23.793Z,99243.28
2023-04-04T08:40:26.017Z,99227.47
2023-04-04T08:45:31.184Z,99228.75
2023-04-04T08:50:35.509Z,99254.88
2023-04-04T08:55:38.370Z,99270.56
2023-04-04T09:00:42.967Z,99247.44
2023-04-04T09:05:45.476Z,99241.84
2023-04-04T09:10:49.618Z,99255.81
2023-04-04T09:15:56.659Z,99264.41
2023-04-04T09:20:59.273Z,99283.41
2023-04-04T09:26:04.365Z,99270.59
2023-04-04T09:31:10.367Z,99284.03
2023-04-04T09:36:13.878Z,99287.06
2023-04-04T09:41:17.995Z,99292.19
2023-04-04T09:46:21.600Z,99287.47
2023-04-04T09:51:23.728Z,99286.13
2023-04-04T09:56:27.858Z,99289.41
2023-04-04T10:01:30.409Z,99267.72
2023-04-04T10:06:32.902Z,99281.88
2023-04-04T10:11:36.963Z,99299.94
2023-04-04T10:16:46.005Z,99295.84
2023-04-04T10:21:48.491Z,99286.28
2023-04-04T10:26:50.822Z,99258.03
2023-04-04T10:32:03.059Z,99302.72
2023-04-04T10:37:30.024Z,99300.28
2023-04-04T10:42:40.668Z,99298.06
2023-04-04T10:47:44.406Z,99308.28
2023-04-04T10:52:46.838Z,99321.09
2023-04-04T10:57:55.590Z,99318.13
2023-04-04T11:03:00.083Z,99295.19
2023-04-04T11:08:08.531Z,99308.19
2023-04-04T11:13:16.673Z,99296.19
2023-04-04T11:18:33.230Z,99259.56
2023-04-04T11:23:59.411Z,99273.88
2023-04-04T11:29:04.515Z,99281.22
2023-04-04T11:39:51.073Z,99282.25
2023-04-04T11:44:56.032Z,99283.75
2023-04-04T11:50:01.315Z,99264.63
2023-04-04T11:55:14.326Z,99279.75
2023-04-04T12:00:35.221Z,99281.03
2023-04-04T12:05:39.235Z,99267.28
2023-04-04T12:10:41.808Z,99231.03
2023-04-04T12:15:44.478Z,99203.06
2023-04-04T12:20:49.510Z,99245.75
2023-04-04T12:25:55.218Z,99215.13
2023-04-04T12:30:57.685Z,99196.66
2023-04-04T12:36:00.466Z,99245.34
2023-04-04T12:41:03.390Z,99283.38
2023-04-04T12:46:09.243Z,99245.34
2023-04-04T12:51:11.710Z,99276.56
2023-04-04T12:56:14.524Z,99260.84
2023-04-04T13:01:19.895Z,99246.38
2023-04-04T13:06:22.846Z,99219.69
2023-04-04T13:11:25.919Z,99260.22
2023-04-04T13:16:37.405Z,99222.19
2023-04-04T13:21:40.401Z,99239.09
2023-04-04T13:26:42.651Z,99263.88
2023-04-04T13:31:44.991Z,99250.75
2023-04-04T13:36:47.196Z,99260.19
2023-04-04T13:41:50.662Z,99228.66
2023-04-04T13:46:52.837Z,99265.97
2023-04-04T13:51:55.266Z,99255.84
2023-04-04T13:56:57.674Z,99265.94
2023-04-04T14:01:59.985Z,99277.97
2023-04-04T14:07:02.098Z,99264.00
2023-04-04T14:12:04.344Z,99295.19
2023-04-04T14:17:06.705Z,99288.00
2023-04-04T14:22:08.890Z,99284.72
2023-04-04T14:27:11.547Z,99303.19
2023-04-04T14:32:13.724Z,99300.72
2023-04-04T14:37:15.825Z,99268.94
2023-04-04T14:42:17.926Z,99299.16
2023-04-04T14:47:20.021Z,99292.22
2023-04-04T14:52:22.193Z,99335.44
2023-04-04T14:57:24.565Z,99296.16
2023-04-04T15:02:26.738Z,99329.09
2023-04-04T15:07:28.896Z,99327.44
2023-04-04T15:12:31.112Z,99324.50
2023-04-04T15:17:33.240Z,99328.09
2023-04-04T15:22:35.555Z,99333.84
2023-04-04T15:27:37.737Z,99370.66
2023-04-04T15:32:39.989Z,99350.47
2023-04-04T15:37:42.212Z,99356.28
2023-04-04T15:42:45.278Z,99355.94
2023-04-04T15:47:47.570Z,99373.06
2023-04-04T15:52:49.833Z,99375.50
2023-04-04T15:57:56.303Z,99353.22
2023-04-04T16:02:59.806Z,99279.66
2023-04-04T16:08:02.544Z,99312.66
2023-04-04T16:13:04.880Z,99323.28
2023-04-04T16:18:07.565Z,99352.63
2023-04-04T16:23:10.169Z,99334.00
2023-04-04T16:28:41.335Z,99386.16
2023-04-04T16:33:59.074Z,99456.97
2023-04-04T16:39:02.009Z,99501.00
2023-04-04T16:44:06.734Z,99394.34
2023-04-04T16:49:10.501Z,99383.19
2023-04-04T16:59:49.844Z,99438.59
2023-04-04T17:04:52.859Z,99486.00
2023-04-04T17:09:55.165Z,99391.75
2023-04-04T17:14:57.893Z,99455.84
2023-04-04T17:20:06.037Z,99482.47
2023-04-04T17:25:09.240Z,99495.75
2023-04-04T17:30:12.286Z,99491.69
2023-04-04T17:35:18.017Z,99397.94
2023-04-04T17:40:20.297Z,99517.72
2023-04-04T17:45:23.146Z,99469.78
2023-04-04T17:50:26.569Z,99473.06
2023-04-04T17:55:29.679Z,99441.28
2023-04-04T18:00:32.315Z,99488.34
2023-04-04T18:05:34.690Z,99454.50
2023-04-04T18:10:37.138Z,99459.88
2023-04-04T18:15:39.523Z,99540.25
2023-04-04T18:20:42.034Z,99569.13
2023-04-04T18:25:44.488Z,99495.97
2023-04-04T18:30:46.816Z,99540.25
2023-04-04T18:35:49.036Z,99621.91
2023-04-04T18:40:53.066Z,99566.97
2023-04-04T18:45:55.555Z,99618.47
2023-04-04T18:50:57.702Z,99663.44
2023-04-04T18:55:59.989Z,99639.72
2023-04-04T19:01:04.048Z,99645.44
2023-04-04T19:06:07.945Z,99674.44
2023-04-04T19:11:11.528Z,99669.72
2023-04-04T19:16:13.953Z,99659.19
2023-04-04T19:21:16.558Z,99602.53
2023-04-04T19:26:18.922Z,99703.44
2023-04-04T19:31:22.826Z,99712.59
2023-04-04T19:36:25.190Z,99717.22
2023-04-04T19:41:38.276Z,99674.06
2023-04-04T19:46:40.712Z,99655.88
2023-04-04T19:51:54.724Z,99588.78
2023-04-04T19:57:06.836Z,99642.84
2023-04-04T20:02:39.400Z,99641.63
2023-04-04T20:07:41.799Z,99704.97
2023-04-04T20:12:44.013Z,99616.66
2023-04-04T20:17:46.492Z,99711.34
2023-04-04T20:22:48.711Z,99653.94
2023-04-04T20:27:51.195Z,99733.97
2023-04-04T20:32:53.622Z,99763.69
2023-04-04T20:37:55.982Z,99654.56
2023-04-04T20:42:58.713Z,99617.69
2023-04-04T20:48:05.029Z,99654.66
2023-04-04T20:53:13.961Z,99782.94
2023-04-04T20:58:31.608Z,99760.50
2023-04-04T21:03:36.827Z,99752.88
2023-04-04T21:08:50.661Z,99683.72
2023-04-04T21:13:52.865Z,99749.19
2023-04-04T21:18:59.069Z,99790.75
2023-04-04T21:24:01.927Z,99766.72
2023-04-04T21:29:22.943Z,99776.66
2023-04-04T21:34:27.782Z,99788.84
2023-04-04T21:39:31.655Z,99677.94
2023-04-04T21:44:34.012Z,99782.72
2023-04-04T21:49:36.277Z,99721.91
2023-04-04T21:54:38.460Z,99669.28
2023-04-04T21:59:40.720Z,99668.72
2023-04-04T22:04:42.991Z,99743.00
2023-04-04T22:09:46.748Z,99791.31
2023-04-04T22:14:50.952Z,99770.28
2023-04-04T22:20:08.534Z,99752.53
2023-04-04T22:25:11.066Z,99786.41
2023-04-04T22:30:13.915Z,99844.63
2023-04-04T22:35:17.384Z,99831.22
2023-04-04T22:45:24.326Z,99708.34
2023-04-04T22:50:27.146Z,99698.88
2023-04-04T22:55:31.485Z,99762.66
2023-04-04T23:00:34.197Z,99813.25
2023-04-04T23:05:36.599Z,99858.69
2023-04-04T23:10:39.160Z,99816.94
2023-04-04T23:15:41.838Z,99801.44
2023-04-04T23:20:44.400Z,99814.44
2023-04-04T23:25:46.736Z,99807.44
2023-04-04T23:30:49.227Z,99881.38
2023-04-04T23:35:51.731Z,99831.19
2023-04-04T23:40:55.321Z,99840.28
2023-04-04T23:45:58.026Z,99827.28
2023-04-04T23:51:02.053Z,99781.53
2023-04-04T23:56:04.393Z,99792.03
